Time;durP1;ratioP1;P1;durP2;ratioP2;P2;SDS_P1;SDS_P2;PMS_P1;PMS_P2;Temp;Humidity;BMP_temperature;BMP_pressure;BME280_temperature;BME280_humidity;BME280_pressure;Samples;Min_cycle;Max_cycle;Signal;HPM_P1;HPM_P2
2022/03/05 00:00:37;;;;;;;3.58;2.58;;;;;;;19.86;37.38;97218.16;10513498;28;20064;-58
2022/03/05 00:05:57;;;;;;;3.72;2.50;;;;;;;19.86;37.34;97214.66;10506787;28;20113;-58
2022/03/05 00:11:16;;;;;;;3.72;2.60;;;;;;;19.83;37.26;97207.97;10507260;28;20051;-58
2022/03/05 00:16:36;;;;;;;2.80;2.50;;;;;;;19.81;37.24;97221.00;10494404;28;20041;-58
2022/03/05 00:21:59;;;;;;;5.10;2.63;;;;;;;19.79;37.24;97206.22;10505246;28;20444;-58
2022/03/05 00:27:18;;;;;;;3.22;2.75;;;;;;;19.78;37.31;97218.94;10505414;28;20519;-58
2022/03/05 00:32:38;;;;;;;3.15;2.47;;;;;;;19.76;37.27;97223.88;10515028;28;20164;-58
2022/03/05 00:37:57;;;;;;;2.60;2.38;;;;;;;19.75;37.21;97224.97;10516175;28;20543;-58
2022/03/05 00:43:16;;;;;;;4.05;2.65;;;;;;;19.72;37.14;97220.22;10504068;28;20049;-57
2022/03/05 00:48:36;;;;;;;2.35;2.15;;;;;;;19.71;37.09;97229.38;10528911;28;20384;-58
2022/03/05 00:53:56;;;;;;;2.90;2.70;;;;;;;19.68;37.08;97220.00;10515382;28;20056;-58
2022/03/05 00:59:16;;;;;;;2.65;2.22;;;;;;;19.67;36.97;97229.22;10510490;28;20136;-58
2022/03/05 01:04:36;;;;;;;4.00;2.30;;;;;;;19.66;36.97;97224.13;10527661;28;20110;-58
2022/03/05 01:09:55;;;;;;;2.97;2.30;;;;;;;19.65;36.98;97217.13;10515333;28;20474;-58
2022/03/05 01:15:14;;;;;;;2.63;2.15;;;;;;;19.62;36.90;97207.75;10489777;28;20055;-58
2022/03/05 01:20:34;;;;;;;2.38;2.17;;;;;;;19.61;36.84;97216.97;10524395;28;20608;-58
2022/03/05 01:25:53;;;;;;;2.80;2.30;;;;;;;19.60;37.02;97209.16;10516145;28;20457;-58
2022/03/05 01:31:14;;;;;;;2.85;2.53;;;;;;;19.57;36.79;97213.31;10512030;28;20093;-58
2022/03/05 01:36:34;;;;;;;2.45;2.13;;;;;;;19.56;36.95;97219.81;10530254;28;20060;-58
2022/03/05 01:41:55;;;;;;;3.67;2.20;;;;;;;19.53;36.91;97215.81;10523065;28;20051;-58
2022/03/05 01:47:14;;;;;;;2.55;2.22;;;;;;;19.52;36.73;97219.66;10529147;28;20041;-58
2022/03/05 01:52:34;;;;;;;2.88;2.10;;;;;;;19.51;36.88;97211.84;10522498;28;20040;-58
2022/03/05 01:57:53;;;;;;;2.20;2.00;;;;;;;19.49;36.80;97214.88;10504950;28;20049;-58
2022/03/05 02:03:13;;;;;;;3.65;2.40;;;;;;;19.47;36.72;97203.56;10538284;28;20032;-58
2022/03/05 02:08:32;;;;;;;3.15;1.80;;;;;;;19.45;36.77;97197.69;10522008;28;20059;-58
2022/03/05 02:13:52;;;;;;;2.47;2.20;;;;;;;19.45;36.67;97192.28;10524519;28;20060;-58
2022/03/05 02:19:12;;;;;;;2.20;2.00;;;;;;;19.43;36.83;97199.91;10524656;28;20495;-58
2022/03/05 02:24:31;;;;;;;2.42;2.22;;;;;;;19.42;36.68;97192.91;10530483;28;20048;-58
2022/03/05 02:29:52;;;;;;;2.40;2.20;;;;;;;19.41;36.79;97185.91;10532506;28;20518;-57
2022/03/05 02:35:11;;;;;;;2.75;2.15;;;;;;;19.38;36.69;97186.53;10536610;28;20048;-58
2022/03/05 02:40:30;;;;;;;2.17;1.98;;;;;;;19.38;36.75;97193.84;10514618;28;20060;-58
2022/03/05 02:45:50;;;;;;;2.60;2.17;;;;;;;19.35;36.70;97187.97;10532116;28;20043;-58
2022/03/05 02:51:10;;;;;;;2.20;2.00;;;;;;;19.33;36.53;97190.19;10529214;28;20039;-58
2022/03/05 02:56:29;;;;;;;2.17;1.90;;;;;;;19.32;36.57;97185.09;10501587;28;20045;-58
2022/03/05 03:01:49;;;;;;;3.72;1.98;;;;;;;19.31;36.48;97187.00;10508846;28;20056;-58
2022/03/05 03:07:08;;;;;;;2.47;2.25;;;;;;;19.30;36.59;97181.91;10532835;28;20059;-58
2022/03/05 03:12:28;;;;;;;3.05;2.00;;;;;;;19.29;36.43;97183.03;10533345;28;20559;-58
2022/03/05 03:17:49;;;;;;;2.30;2.10;;;;;;;19.26;36.50;97178.25;10519432;28;20060;-58
2022/03/05 03:23:09;;;;;;;2.17;1.95;;;;;;;19.25;36.57;97173.94;10529319;28;20070;-58
2022/03/05 03:28:29;;;;;;;1.80;1.60;;;;;;;19.23;36.59;97179.66;10522360;28;20052;-58
2022/03/05 03:33:49;;;;;;;2.38;2.17;;;;;;;19.22;36.56;97177.28;10528103;28;20056;-58
2022/03/05 03:39:09;;;;;;;2.35;2.03;;;;;;;19.19;36.29;97189.50;10521993;28;20083;-57
2022/03/05 03:44:28;;;;;;;2.35;2.10;;;;;;;19.18;36.54;97193.31;10521573;28;20082;-58
2022/03/05 03:49:48;;;;;;;2.72;2.00;;;;;;;19.17;36.49;97181.72;10508384;28;20045;-58
2022/03/05 03:55:10;;;;;;;2.05;1.85;;;;;;;19.16;36.39;97188.22;10507593;28;20082;-58
2022/03/05 04:00:30;;;;;;;2.05;1.83;;;;;;;19.15;36.43;97180.41;10501556;28;20053;-58
2022/03/05 04:05:49;;;;;;;2.00;1.83;;;;;;;19.12;36.43;97187.25;10505193;28;20457;-58
2022/03/05 04:11:18;;;;;;;1.98;1.85;;;;;;;19.11;36.36;97190.25;10508565;28;20450;-58
2022/03/05 04:16:37;;;;;;;1.80;1.70;;;;;;;19.10;36.26;97194.84;10524134;28;20059;-58
2022/03/05 04:21:57;;;;;;;2.83;1.90;;;;;;;19.08;36.31;97197.06;10516143;28;20055;-58
2022/03/05 04:27:17;;;;;;;2.30;1.95;;;;;;;19.06;36.38;97196.59;10526793;28;20040;-58
2022/03/05 04:32:38;;;;;;;2.53;2.00;;;;;;;19.04;36.32;97193.41;10519414;28;20044;-58
2022/03/05 04:37:58;;;;;;;2.17;1.98;;;;;;;19.04;36.42;97200.72;10515475;28;20055;-58
2022/03/05 04:43:18;;;;;;;1.83;1.73;;;;;;;19.02;36.25;97190.22;10515176;28;20056;-58
2022/03/05 04:48:37;;;;;;;2.15;1.95;;;;;;;19.00;36.30;97195.13;10523496;28;20487;-57
2022/03/05 04:53:56;;;;;;;2.25;1.80;;;;;;;18.99;36.53;97198.13;10538734;28;20041;-58
2022/03/05 04:59:16;;;;;;;2.10;1.90;;;;;;;18.98;36.20;97205.44;10515453;28;20047;-57
2022/03/05 05:04:35;;;;;;;2.42;1.70;;;;;;;18.96;36.36;97202.28;10517495;28;20059;-58
2022/03/05 05:09:55;;;;;;;2.25;1.80;;;;;;;18.95;36.16;97211.47;10513438;28;20053;-57
2022/03/05 05:15:15;;;;;;;2.10;1.80;;;;;;;18.93;36.25;97213.66;10511141;28;20502;-57
2022/03/05 05:20:34;;;;;;;2.15;1.95;;;;;;;18.91;36.28;97216.69;10508143;28;20427;-57
2022/03/05 05:25:54;;;;;;;2.28;2.08;;;;;;;18.91;36.16;97221.28;10514224;28;20055;-57
2022/03/05 05:31:13;;;;;;;1.58;1.48;;;;;;;18.90;36.29;97225.91;10513858;28;20102;-58
2022/03/05 05:36:33;;;;;;;1.98;1.80;;;;;;;18.88;36.23;97227.31;10532388;28;20502;-57
2022/03/05 05:41:52;;;;;;;2.38;1.92;;;;;;;18.86;36.24;97213.34;10533848;28;20101;-58
2022/03/05 05:47:12;;;;;;;2.05;1.85;;;;;;;18.85;36.12;97222.53;10530765;28;20045;-58
2022/03/05 05:52:31;;;;;;;2.20;1.88;;;;;;;18.86;36.29;97224.13;10534069;28;20044;-57
2022/03/05 05:57:50;;;;;;;2.28;1.95;;;;;;;18.85;36.22;97227.94;10530169;28;20048;-57
2022/03/05 06:03:09;;;;;;;2.60;1.92;;;;;;;18.86;36.16;97229.53;10529992;28;20056;-57
2022/03/05 06:08:29;;;;;;;2.13;1.92;;;;;;;18.87;36.36;97236.50;10527663;28;20696;-58
2022/03/05 06:13:49;;;;;;;2.10;1.90;;;;;;;18.88;36.27;97238.91;10529729;28;20130;-57
2022/03/05 06:19:08;;;;;;;3.70;2.30;;;;;;;18.90;36.29;97235.91;10509089;28;20040;-57
2022/03/05 06:24:28;;;;;;;2.22;2.03;;;;;;;18.90;36.35;97236.69;10510188;28;20052;-57
2022/03/05 06:29:48;;;;;;;2.38;2.17;;;;;;;18.92;36.40;97245.28;10513518;28;20051;-58
2022/03/05 06:35:08;;;;;;;2.00;1.90;;;;;;;18.94;36.39;97247.69;10510907;28;20055;-57
2022/03/05 06:40:28;;;;;;;2.10;1.90;;;;;;;18.94;36.50;97259.25;10508510;28;20487;-57
2022/03/05 06:45:48;;;;;;;2.42;2.13;;;;;;;18.93;36.49;97256.88;10514078;28;20479;-58
2022/03/05 06:51:07;;;;;;;2.78;2.30;;;;;;;18.93;36.62;97249.59;10529142;28;20117;-58
2022/03/05 06:56:27;;;;;;;2.42;2.22;;;;;;;18.95;36.77;97254.66;10526505;28;20052;-57
2022/03/05 07:01:46;;;;;;;2.40;2.20;;;;;;;18.97;36.81;97255.16;10529838;28;20051;-58
2022/03/05 07:07:06;;;;;;;5.10;2.17;;;;;;;18.97;36.94;97252.44;10522645;28;20044;-58
2022/03/05 07:12:25;;;;;;;2.97;2.22;;;;;;;19.00;37.09;97251.84;10526548;28;20057;-57
2022/03/05 07:17:51;;;;;;;2.67;2.00;;;;;;;19.02;37.14;97243.44;10525302;28;20528;-57
2022/03/05 07:23:11;;;;;;;2.33;2.13;;;;;;;19.05;37.12;97257.13;10526855;28;20059;-57
2022/03/05 07:28:30;;;;;;;2.20;1.92;;;;;;;19.06;37.20;97266.78;10527348;28;20376;-57
2022/03/05 07:33:50;;;;;;;2.85;2.30;;;;;;;19.10;37.01;97261.59;10528653;28;20055;-57
2022/03/05 07:39:10;;;;;;;3.38;2.30;;;;;;;19.13;37.32;97269.88;10537820;28;20388;-57
2022/03/05 07:44:30;;;;;;;7.60;2.83;;;;;;;19.19;37.39;97272.41;10540582;28;20052;-57
2022/03/05 08:06:23;;;;;;;8.25;3.60;;;;;;;19.45;37.74;97272.56;5794037;26;20412;-56
2022/03/05 08:11:57;;;;;;;7.90;3.90;;;;;;;19.47;37.61;97276.53;10196939;29;20620;-56
2022/03/05 08:17:16;;;;;;;7.63;3.58;;;;;;;19.50;37.88;97280.50;10213585;29;20434;-54
2022/03/05 08:22:36;;;;;;;8.52;3.83;;;;;;;19.52;37.80;97281.81;10207123;29;20415;-52
2022/03/05 08:27:55;;;;;;;10.15;6.90;;;;;;;19.55;36.87;97293.88;10218507;29;20043;-57
2022/03/05 08:33:17;;;;;;;9.77;4.65;;;;;;;19.48;36.66;97294.34;10213443;29;20187;-55
2022/03/05 08:38:37;;;;;;;11.98;6.13;;;;;;;19.53;37.08;97288.78;10214284;29;20111;-58
2022/03/05 08:43:56;;;;;;;13.43;5.60;;;;;;;19.61;37.45;97295.34;10222745;28;20072;-59
2022/03/05 08:49:15;;;;;;;12.40;5.53;;;;;;;19.66;37.81;97295.22;10210960;29;20119;-59
2022/03/05 08:54:35;;;;;;;16.80;7.10;;;;;;;19.72;37.99;97287.78;10213630;29;20063;-56
2022/03/05 08:59:54;;;;;;;15.60;7.55;;;;;;;19.78;38.27;97296.53;10208574;29;20055;-56
2022/03/05 09:05:14;;;;;;;12.50;5.97;;;;;;;19.84;38.72;97301.50;10166739;29;20523;-57
2022/03/05 09:10:34;;;;;;;14.02;6.35;;;;;;;19.92;38.70;97308.03;10171788;29;20108;-57
2022/03/05 09:15:54;;;;;;;15.60;6.35;;;;;;;19.96;38.67;97306.31;10159900;28;20043;-57
2022/03/05 09:21:13;;;;;;;10.93;5.40;;;;;;;20.02;38.69;97304.25;10185877;29;20056;-57
2022/03/05 09:26:32;;;;;;;13.80;5.57;;;;;;;20.07;38.94;97301.38;10177333;29;20040;-56
2022/03/05 09:31:52;;;;;;;11.00;5.30;;;;;;;20.12;39.30;97291.22;10182832;29;20063;-56
2022/03/05 09:37:11;;;;;;;10.88;5.28;;;;;;;20.20;39.52;97297.75;10159064;29;20882;-53
2022/03/05 09:42:30;;;;;;;13.00;9.43;;;;;;;20.21;34.60;97293.94;10182484;29;20060;-57
2022/03/05 09:47:50;;;;;;;9.93;5.97;;;;;;;20.06;35.19;97286.28;10174597;29;20056;-58
2022/03/05 09:53:09;;;;;;;8.63;6.57;;;;;;;20.16;36.95;97291.38;10174154;29;20119;-57
2022/03/05 09:58:29;;;;;;;11.77;7.55;;;;;;;20.25;38.60;97294.91;10164255;29;20419;-56
2022/03/05 10:03:51;;;;;;;14.68;10.32;;;;;;;20.25;31.29;97304.94;10180662;29;20487;-55
2022/03/05 10:09:23;;;;;;;18.67;13.40;;;;;;;20.22;37.48;97310.97;10169342;29;20056;-57
2022/03/05 10:14:42;;;;;;;13.57;9.82;;;;;;;20.28;37.89;97310.50;10172665;29;20108;-57
2022/03/05 10:20:05;;;;;;;12.43;8.57;;;;;;;20.35;38.08;97308.13;10189079;29;20510;-57
2022/03/05 10:25:32;;;;;;;9.00;7.15;;;;;;;20.41;37.91;97306.06;10174477;29;20052;-57
2022/03/05 10:31:02;;;;;;;11.23;7.60;;;;;;;20.44;37.39;97305.41;10173041;29;20064;-56
2022/03/05 10:36:23;;;;;;;9.27;8.23;;;;;;;20.24;30.46;97309.53;10171465;29;20056;-57
2022/03/05 10:41:43;;;;;;;9.60;7.55;;;;;;;20.25;33.07;97294.91;10170876;29;20056;-56
2022/03/05 10:47:03;;;;;;;10.38;8.00;;;;;;;20.20;28.61;97291.56;10171977;29;20122;-56
2022/03/05 10:52:23;;;;;;;11.13;9.35;;;;;;;20.03;28.19;97293.13;10179890;29;20055;-51
2022/03/05 10:57:57;;;;;;;10.73;8.57;;;;;;;19.58;28.21;97276.25;10170303;29;20036;-55
2022/03/05 11:03:17;;;;;;;21.83;11.35;;;;;;;19.77;31.13;97278.72;10167608;29;20063;-54
2022/03/05 11:08:37;;;;;;;16.60;8.55;;;;;;;19.95;31.67;97275.78;10151478;29;20119;-56
2022/03/05 11:13:57;;;;;;;10.98;8.95;;;;;;;19.92;27.43;97284.50;10159813;29;20060;-54
2022/03/05 11:19:17;;;;;;;9.63;7.28;;;;;;;19.32;24.38;97277.72;10160733;29;20051;-54
2022/03/05 11:24:38;;;;;;;12.30;7.00;;;;;;;19.42;29.12;97271.25;10141055;29;20423;-56
2022/03/05 11:30:00;;;;;;;11.38;6.38;;;;;;;19.71;30.88;97265.34;10156153;29;20056;-54
2022/03/05 11:35:22;;;;;;;16.58;7.13;;;;;;;19.92;31.80;97265.56;10153615;29;20143;-54
2022/03/05 11:40:43;;;;;;;15.48;6.63;;;;;;;20.06;32.84;97260.03;10163606;29;20052;-53
2022/03/05 11:46:03;;;;;;;13.95;6.60;;;;;;;20.16;33.49;97248.09;10167419;29;20052;-51
2022/03/05 11:51:22;;;;;;;12.20;6.13;;;;;;;20.25;33.93;97245.41;10169127;29;20159;-56
2022/03/05 11:57:04;;;;;;;8.63;5.68;;;;;;;20.32;32.20;97249.22;10163301;29;20048;-56
2022/03/05 12:02:39;;;;;;;13.75;4.97;;;;;;;20.37;34.36;97247.50;10157385;29;20108;-55
2022/03/05 12:07:59;;;;;;;9.13;4.72;;;;;;;20.41;34.46;97243.03;10168366;29;20052;-55
2022/03/05 12:13:19;;;;;;;11.55;5.20;;;;;;;20.45;34.82;97233.16;10163299;29;20062;-52
2022/03/05 12:18:40;;;;;;;10.65;5.28;;;;;;;20.50;34.96;97222.97;10170574;29;20162;-55
2022/03/05 12:24:10;;;;;;;4.75;4.00;;;;;;;19.05;19.75;97213.09;10171426;29;20056;-54
2022/03/05 12:29:30;;;;;;;36.60;31.10;;;;;;;-146.19;100.00;65364.44;10169991;29;20043;-55
2022/03/05 12:34:49;;;;;;;5.82;5.10;;;;;;;17.36;20.13;97220.38;10159192;29;20063;-56
2022/03/05 12:40:11;;;;;;;8.48;7.03;;;;;;;18.28;25.19;97223.84;10172030;29;20553;-54
2022/03/05 12:45:39;;;;;;;7.45;6.45;;;;;;;19.05;26.36;97221.19;10168376;29;20060;-55
2022/03/05 12:50:59;;;;;;;;;;;;;;;19.49;26.49;97227.59;10175136;29;20526;-55
2022/03/05 12:56:21;;;;;;;12.07;7.45;;;;;;;19.75;27.56;97219.56;10167493;29;19934;-56
2022/03/05 13:01:40;;;;;;;10.52;7.13;;;;;;;19.93;27.78;97213.09;10171912;29;20052;-56
2022/03/05 13:07:00;;;;;;;10.88;6.20;;;;;;;20.08;28.09;97214.53;10170343;29;20120;-54
2022/03/05 13:12:34;;;;;;;10.25;6.45;;;;;;;20.19;28.38;97208.78;10173108;29;20055;-55
2022/03/05 13:18:04;;;;;;;11.32;6.32;;;;;;;20.29;28.81;97214.69;10173103;29;20564;-53
2022/03/05 13:23:23;;;;;;;10.23;6.45;;;;;;;20.37;29.09;97212.31;10159706;29;20389;-56
2022/03/05 13:28:43;;;;;;;11.77;6.78;;;;;;;20.41;29.37;97210.56;10167931;29;20048;-55
2022/03/05 13:34:04;;;;;;;8.85;6.28;;;;;;;20.49;29.76;97207.84;10168897;29;20504;-56
2022/03/05 13:39:26;;;;;;;11.88;7.05;;;;;;;20.54;29.98;97214.97;10170018;29;20048;-55
2022/03/05 13:44:45;;;;;;;9.30;6.25;;;;;;;20.57;30.13;97208.94;10170046;29;20087;-53
2022/03/05 13:50:05;;;;;;;10.52;5.95;;;;;;;20.61;30.52;97209.13;10173981;29;20056;-56
2022/03/05 13:55:27;;;;;;;7.60;5.25;;;;;;;20.63;30.66;97206.91;10170989;29;20740;-56
2022/03/05 14:00:46;;;;;;;8.68;5.93;;;;;;;20.65;30.47;97210.88;10170771;29;20052;-55
2022/03/05 14:06:12;;;;;;;10.75;5.95;;;;;;;20.68;30.58;97209.41;10171062;29;20067;-55
2022/03/05 14:11:32;;;;;;;9.40;5.30;;;;;;;20.72;30.74;97213.09;10169898;29;20054;-55
2022/03/05 14:16:54;;;;;;;8.52;5.60;;;;;;;20.72;31.03;97207.69;10172253;29;20059;-55
2022/03/05 14:22:15;;;;;;;8.82;5.22;;;;;;;20.74;31.54;97208.16;10169395;29;20060;-55
2022/03/05 14:27:34;;;;;;;10.48;5.25;;;;;;;20.75;31.88;97209.72;10157701;29;20051;-52
2022/03/05 14:32:55;;;;;;;9.30;5.25;;;;;;;20.78;32.43;97208.28;10162600;29;20052;-55
2022/03/05 14:38:15;;;;;;;8.65;4.60;;;;;;;20.79;32.80;97199.06;10173288;29;20080;-52
2022/03/05 14:43:35;;;;;;;7.32;4.47;;;;;;;20.80;32.97;97200.66;10168680;29;20056;-53
2022/03/05 14:48:54;;;;;;;6.03;4.20;;;;;;;20.81;33.34;97194.91;10171878;29;20055;-54
2022/03/05 14:54:13;;;;;;;7.00;4.30;;;;;;;20.82;33.43;97199.22;10171937;29;20048;-53
2022/03/05 14:59:33;;;;;;;7.53;4.00;;;;;;;20.82;34.28;97196.50;10168803;29;20060;-52
2022/03/05 15:04:53;;;;;;;6.03;4.15;;;;;;;20.82;34.34;97190.31;10169078;29;20060;-52
2022/03/05 15:10:13;;;;;;;7.07;3.90;;;;;;;20.82;34.56;97185.69;10165517;29;20048;-56
2022/03/05 15:15:32;;;;;;;8.88;4.32;;;;;;;20.81;34.87;97197.59;10163335;29;20067;-53
2022/03/05 15:20:52;;;;;;;7.60;3.85;;;;;;;20.80;34.99;97189.84;10156596;29;20057;-55
2022/03/05 15:26:11;;;;;;;6.70;3.67;;;;;;;20.79;34.98;97188.22;10160859;29;20040;-55
2022/03/05 15:31:31;;;;;;;7.70;3.90;;;;;;;20.80;35.35;97187.91;10168682;29;20071;-54
2022/03/05 15:36:51;;;;;;;10.07;4.00;;;;;;;20.80;35.41;97181.72;10161190;29;20056;-54
2022/03/05 15:42:11;;;;;;;6.57;3.70;;;;;;;20.80;35.65;97181.72;10155065;29;20059;-52
2022/03/05 15:47:30;;;;;;;7.53;3.53;;;;;;;20.80;35.45;97179.00;10167558;29;20045;-53
2022/03/05 15:52:50;;;;;;;7.70;3.40;;;;;;;20.78;35.47;97168.50;10150815;29;20056;-51
2022/03/05 15:58:09;;;;;;;8.25;3.35;;;;;;;20.76;35.58;97165.31;10158194;29;20048;-54
2022/03/05 16:03:29;;;;;;;5.82;3.60;;;;;;;20.75;35.65;97169.13;10160555;29;20067;-52
2022/03/05 16:08:48;;;;;;;5.65;3.67;;;;;;;20.75;35.61;97174.53;10170242;29;20092;-55
2022/03/05 16:14:08;;;;;;;5.13;3.03;;;;;;;20.74;35.83;97181.88;10167470;29;20139;-53
2022/03/05 16:19:32;;;;;;;7.47;3.30;;;;;;;20.76;35.69;97175.31;10389886;23;20629;-57
2022/03/05 16:24:52;;;;;;;5.60;3.40;;;;;;;20.77;36.11;97182.34;10129771;29;20124;-56
2022/03/05 16:30:11;;;;;;;5.10;3.38;;;;;;;20.76;36.22;97184.25;10133818;29;20479;-56
2022/03/05 16:35:32;;;;;;;4.75;3.30;;;;;;;20.76;36.26;97186.16;10141237;29;20048;-55
2022/03/05 16:40:51;;;;;;;7.18;3.75;;;;;;;20.76;36.20;97178.03;10137148;29;20061;-55
2022/03/05 16:46:11;;;;;;;8.10;3.42;;;;;;;20.72;36.34;97177.91;10133414;29;20089;-55
2022/03/05 16:51:33;;;;;;;6.07;3.30;;;;;;;20.72;36.42;97177.91;10132866;29;20104;-55
2022/03/05 16:56:52;;;;;;;6.28;3.20;;;;;;;20.72;36.46;97177.91;10134083;29;20056;-55
2022/03/05 17:02:12;;;;;;;6.20;3.22;;;;;;;20.72;36.65;97165.16;10136395;29;20140;-56
2022/03/05 17:07:33;;;;;;;7.22;3.35;;;;;;;20.70;36.04;97174.72;10133524;29;20056;-55
2022/03/05 17:12:52;;;;;;;7.75;4.32;;;;;;;20.69;36.82;97173.91;10131200;29;20060;-55
2022/03/05 17:18:12;;;;;;;5.63;3.83;;;;;;;20.68;38.05;97185.88;10122207;29;20057;-55
2022/03/05 17:23:32;;;;;;;9.13;4.20;;;;;;;20.67;38.35;97181.56;10095054;29;20065;-56
2022/03/05 17:28:52;;;;;;;7.55;3.55;;;;;;;20.67;38.68;97191.59;10101770;29;20064;-56
2022/03/05 17:34:12;;;;;;;9.23;3.90;;;;;;;20.63;38.10;97190.66;10098714;29;20414;-56
2022/03/05 17:39:34;;;;;;;6.63;5.80;;;;;;;20.22;26.68;97202.75;10108071;29;20065;-55
2022/03/05 17:44:54;;;;;;;6.47;4.30;;;;;;;20.05;32.22;97212.47;10096268;29;20064;-55
2022/03/05 17:50:15;;;;;;;6.93;4.00;;;;;;;20.19;34.51;97215.03;10080953;29;20546;-56
2022/03/05 17:55:34;;;;;;;9.45;7.10;;;;;;;20.26;34.47;97215.31;10089617;29;20101;-55
2022/03/05 18:00:55;;;;;;;6.22;4.85;;;;;;;20.31;36.21;97222.50;10094060;29;20053;-54
2022/03/05 18:06:15;;;;;;;5.85;4.07;;;;;;;20.33;36.72;97221.06;10082202;29;20067;-56
2022/03/05 18:11:34;;;;;;;24.20;15.55;;;;;;;20.25;30.34;97218.38;10090948;29;20057;-55
2022/03/05 18:16:54;;;;;;;15.55;9.55;;;;;;;20.18;32.58;97224.25;10089544;29;20079;-55
2022/03/05 18:22:13;;;;;;;19.27;12.65;;;;;;;20.06;32.50;97221.38;10084893;29;20130;-55
2022/03/05 18:27:33;;;;;;;18.80;11.80;;;;;;;20.11;34.67;97218.50;10092310;29;20067;-55
2022/03/05 18:32:53;;;;;;;36.38;23.60;;;;;;;19.73;26.46;97229.91;10092826;29;20049;-54
2022/03/05 18:38:13;;;;;;;33.95;21.58;;;;;;;18.85;23.95;97227.94;10079608;29;20428;-54
2022/03/05 18:43:33;;;;;;;28.73;18.73;;;;;;;18.14;23.20;97236.59;10094804;29;20052;-54
2022/03/05 18:48:53;;;;;;;24.42;17.20;;;;;;;18.14;23.20;97236.59;10092111;29;20041;-54
2022/03/05 18:54:13;;;;;;;21.05;13.93;;;;;;;18.84;28.38;97237.16;10091164;29;20404;-54
2022/03/05 18:59:33;;;;;;;22.42;14.70;;;;;;;19.15;30.41;97248.75;10089225;29;20101;-54
2022/03/05 19:04:52;;;;;;;20.73;13.93;;;;;;;19.34;31.18;97248.50;10086157;29;20037;-55
2022/03/05 19:10:13;;;;;;;18.42;13.35;;;;;;;19.45;31.73;97240.91;10092148;29;20056;-58
2022/03/05 19:15:33;;;;;;;20.45;12.65;;;;;;;19.53;32.19;97250.97;10086123;29;20061;-57
2022/03/05 19:20:53;;;;;;;18.02;11.90;;;;;;;19.59;32.68;97261.63;10087876;29;20057;-56
2022/03/05 19:26:13;;;;;;;17.48;11.15;;;;;;;19.62;33.10;97267.22;10092342;29;20052;-57
2022/03/05 19:31:33;;;;;;;14.95;10.68;;;;;;;19.65;33.45;97271.97;10081481;29;20424;-56
2022/03/05 19:36:52;;;;;;;15.75;10.40;;;;;;;19.67;33.92;97269.75;10083842;29;20055;-56
2022/03/05 19:42:12;;;;;;;15.70;10.38;;;;;;;19.70;34.14;97268.34;10090825;29;20578;-56
2022/03/05 19:47:32;;;;;;;16.27;10.10;;;;;;;19.73;34.25;97273.16;10089043;29;20060;-56
2022/03/05 19:52:51;;;;;;;14.10;9.65;;;;;;;19.75;34.50;97277.13;10089922;29;20065;-57
2022/03/05 19:58:11;;;;;;;14.60;9.52;;;;;;;19.78;34.86;97275.72;10092783;29;20061;-59
2022/03/05 20:03:30;;;;;;;14.18;9.18;;;;;;;19.82;35.02;97281.31;10094652;29;20109;-59
2022/03/05 20:08:50;;;;;;;13.57;9.25;;;;;;;19.84;35.24;97281.78;10077619;29;20057;-58
2022/03/05 20:14:09;;;;;;;15.20;9.25;;;;;;;19.87;35.34;97292.75;10094215;29;20105;-59
2022/03/05 20:19:29;;;;;;;13.57;9.32;;;;;;;19.89;35.61;97295.94;10091069;29;20080;-57
2022/03/05 20:24:49;;;;;;;14.57;9.65;;;;;;;19.91;35.92;97291.00;10088522;29;20056;-58
2022/03/05 20:30:11;;;;;;;15.40;8.77;;;;;;;19.94;35.96;97289.59;10083519;29;20503;-57
2022/03/05 20:35:31;;;;;;;14.70;9.07;;;;;;;19.97;36.03;97293.56;10083527;29;20065;-58
2022/03/05 20:40:51;;;;;;;12.65;8.27;;;;;;;19.99;36.25;97296.75;10095719;29;20093;-60
2022/03/05 20:46:10;;;;;;;14.48;8.80;;;;;;;20.00;36.43;97288.34;10093367;29;20673;-58
2022/03/05 20:51:29;;;;;;;14.73;8.65;;;;;;;20.03;36.59;97286.91;10094940;29;20061;-58
2022/03/05 20:56:49;;;;;;;14.70;8.68;;;;;;;20.04;36.85;97288.50;10090275;29;20057;-55
2022/03/05 21:02:09;;;;;;;14.13;8.15;;;;;;;20.06;36.84;97289.00;10084357;29;20101;-57
2022/03/05 21:07:29;;;;;;;16.27;8.68;;;;;;;20.05;37.12;97284.69;10089272;29;20049;-57
2022/03/05 21:12:50;;;;;;;12.77;7.78;;;;;;;20.07;37.02;97283.28;10096234;29;20048;-58
2022/03/05 21:18:10;;;;;;;13.52;7.97;;;;;;;20.09;37.48;97288.34;10095881;29;20060;-56
2022/03/05 21:23:31;;;;;;;12.50;7.22;;;;;;;20.09;37.37;97280.22;10097111;29;20064;-56
2022/03/05 21:28:50;;;;;;;12.68;7.65;;;;;;;20.09;37.70;97275.63;10081465;29;20065;-57
2022/03/05 21:34:10;;;;;;;9.77;6.85;;;;;;;20.10;38.75;97273.72;10094664;29;20060;-57
2022/03/05 21:39:31;;;;;;;11.85;6.90;;;;;;;20.12;39.29;97261.47;10093105;29;20037;-56
2022/03/05 21:44:50;;;;;;;12.25;6.57;;;;;;;20.15;39.61;97262.75;10093721;29;20055;-55
2022/03/05 21:50:10;;;;;;;11.45;7.05;;;;;;;20.17;39.73;97276.75;10086546;29;20045;-56
2022/03/05 21:55:29;;;;;;;13.27;6.40;;;;;;;20.15;39.83;97266.25;10091686;29;20113;-56
2022/03/05 22:00:49;;;;;;;10.43;6.75;;;;;;;20.15;39.85;97284.41;10092442;29;20095;-56
2022/03/05 22:06:08;;;;;;;12.55;6.55;;;;;;;20.14;39.96;97271.97;10084032;29;20037;-54
2022/03/05 22:11:28;;;;;;;11.65;6.15;;;;;;;20.13;40.05;97273.06;10070274;29;20049;-56
2022/03/05 22:16:47;;;;;;;9.52;6.18;;;;;;;20.13;40.27;97263.06;10089024;29;20045;-55
2022/03/05 22:22:08;;;;;;;9.40;5.68;;;;;;;20.14;40.28;97266.56;10079584;29;20444;-56
2022/03/05 22:27:27;;;;;;;8.95;5.95;;;;;;;20.12;40.47;97258.75;10076361;29;20049;-56
2022/03/05 22:32:46;;;;;;;9.40;5.75;;;;;;;20.13;40.54;97246.03;10067250;29;20440;-57
2022/03/05 22:38:06;;;;;;;10.25;5.80;;;;;;;20.12;40.44;97257.97;10066313;29;20105;-56
2022/03/05 22:43:25;;;;;;;8.60;5.50;;;;;;;20.11;40.52;97259.06;10068269;29;20049;-57
2022/03/05 22:48:45;;;;;;;8.63;5.50;;;;;;;20.11;40.64;97253.66;10079250;29;20072;-57
2022/03/05 22:54:05;;;;;;;8.05;5.30;;;;;;;20.12;40.35;97249.84;10087752;29;20437;-56
2022/03/05 22:59:24;;;;;;;9.48;4.82;;;;;;;20.10;40.45;97238.56;10087203;29;20052;-56
2022/03/05 23:04:44;;;;;;;9.57;5.70;;;;;;;20.09;40.40;97242.34;10088387;29;20084;-56
2022/03/05 23:10:04;;;;;;;6.88;4.88;;;;;;;20.07;40.56;97239.19;10091836;29;20059;-56
2022/03/05 23:15:24;;;;;;;7.72;4.82;;;;;;;20.06;40.43;97238.38;10089882;29;20065;-55
2022/03/05 23:20:44;;;;;;;7.35;4.97;;;;;;;20.06;40.72;97243.00;10091933;29;20057;-56
2022/03/05 23:26:04;;;;;;;7.95;4.70;;;;;;;20.04;40.50;97234.41;10091348;29;20793;-56
2022/03/05 23:31:23;;;;;;;6.47;4.57;;;;;;;20.03;40.51;97243.63;10089921;29;20061;-55
2022/03/05 23:36:43;;;;;;;7.20;4.47;;;;;;;20.02;40.45;97244.75;10090955;29;20131;-56
2022/03/05 23:42:02;;;;;;;6.90;4.57;;;;;;;20.01;40.62;97233.13;10088995;29;20057;-55
2022/03/05 23:47:22;;;;;;;8.40;4.82;;;;;;;20.01;40.53;97240.44;10087970;29;20053;-56
2022/03/05 23:52:42;;;;;;;6.55;4.60;;;;;;;19.98;40.72;97230.28;10090097;29;20053;-55
2022/03/05 23:58:01;;;;;;;6.47;4.18;;;;;;;19.97;40.69;97232.16;10088521;29;20053;-55
